sensor_id;sensor_type;location;lat;lon;timestamp;pressure;altitude;pressure_sealevel;temperature;humidity
43153;BME280;28756;49.064;9.290;2023-04-25T00:01:33;98469.34;;;7.55;100.00
43153;BME280;28756;49.064;9.290;2023-04-25T00:04:02;98471.13;;;7.55;100.00
43153;BME280;28756;49.064;9.290;2023-04-25T00:06:29;98472.25;;;7.49;100.00
43153;BME280;28756;49.064;9.290;2023-04-25T00:08:55;98473.16;;;7.48;100.00
43153;BME280;28756;49.064;9.290;2023-04-25T00:11:22;98475.94;;;7.45;100.00
43153;BME280;28756;49.064;9.290;2023-04-25T00:13:48;98472.59;;;7.43;100.00
43153;BME280;28756;49.064;9.290;2023-04-25T00:16:16;98470.91;;;7.42;100.00
43153;BME280;28756;49.064;9.290;2023-04-25T00:18:42;98464.06;;;7.41;100.00
43153;BME280;28756;49.064;9.290;2023-04-25T00:21:08;98464.06;;;7.41;100.00
43153;BME280;28756;49.064;9.290;2023-04-25T00:23:34;98464.28;;;7.36;100.00
43153;BME280;28756;49.064;9.290;2023-04-25T00:26:02;98462.69;;;7.34;100.00
43153;BME280;28756;49.064;9.290;2023-04-25T00:28:28;98463.03;;;7.27;100.00
43153;BME280;28756;49.064;9.290;2023-04-25T00:30:54;98466.88;;;7.19;100.00
43153;BME280;28756;49.064;9.290;2023-04-25T00:33:19;98465.16;;;7.19;100.00
43153;BME280;28756;49.064;9.290;2023-04-25T00:35:45;98464.78;;;7.09;100.00
43153;BME280;28756;49.064;9.290;2023-04-25T00:38:11;98462.22;;;7.09;100.00
43153;BME280;28756;49.064;9.290;2023-04-25T00:40:37;98452.78;;;7.08;100.00
43153;BME280;28756;49.064;9.290;2023-04-25T00:43:03;98446.69;;;7.09;100.00
43153;BME280;28756;49.064;9.290;2023-04-25T00:45:30;98445.94;;;7.07;100.00
43153;BME280;28756;49.064;9.290;2023-04-25T00:47:56;98448.59;;;7.06;100.00
43153;BME280;28756;49.064;9.290;2023-04-25T00:50:23;98434.06;;;7.03;100.00
43153;BME280;28756;49.064;9.290;2023-04-25T00:52:49;98437.81;;;6.98;100.00
43153;BME280;28756;49.064;9.290;2023-04-25T00:55:15;98429.50;;;6.91;100.00
43153;BME280;28756;49.064;9.290;2023-04-25T00:57:42;98428.28;;;6.80;100.00
43153;BME280;28756;49.064;9.290;2023-04-25T01:00:09;98437.13;;;6.76;100.00
43153;BME280;28756;49.064;9.290;2023-04-25T01:02:36;98438.16;;;6.72;100.00
43153;BME280;28756;49.064;9.290;2023-04-25T01:05:03;98444.50;;;6.67;100.00
43153;BME280;28756;49.064;9.290;2023-04-25T01:07:29;98436.19;;;6.60;100.00
43153;BME280;28756;49.064;9.290;2023-04-25T01:09:56;98440.81;;;6.53;100.00
43153;BME280;28756;49.064;9.290;2023-04-25T01:12:22;98439.13;;;6.52;100.00
43153;BME280;28756;49.064;9.290;2023-04-25T01:14:48;98436.78;;;6.47;100.00
43153;BME280;28756;49.064;9.290;2023-04-25T01:17:14;98441.41;;;6.41;100.00
43153;BME280;28756;49.064;9.290;2023-04-25T01:19:41;98435.69;;;6.34;100.00
43153;BME280;28756;49.064;9.290;2023-04-25T01:22:07;98431.13;;;6.39;100.00
43153;BME280;28756;49.064;9.290;2023-04-25T01:24:35;98431.78;;;6.44;100.00
43153;BME280;28756;49.064;9.290;2023-04-25T01:27:02;98431.00;;;6.42;100.00
43153;BME280;28756;49.064;9.290;2023-04-25T01:29:29;98425.97;;;6.39;100.00
43153;BME280;28756;49.064;9.290;2023-04-25T01:31:56;98424.53;;;6.34;100.00
43153;BME280;28756;49.064;9.290;2023-04-25T01:34:24;98425.53;;;6.31;100.00
43153;BME280;28756;49.064;9.290;2023-04-25T01:36:50;98432.50;;;6.29;100.00
43153;BME280;28756;49.064;9.290;2023-04-25T01:39:18;98440.03;;;6.34;100.00
43153;BME280;28756;49.064;9.290;2023-04-25T01:41:48;98433.66;;;6.41;100.00
43153;BME280;28756;49.064;9.290;2023-04-25T01:44:15;98432.25;;;6.53;100.00
43153;BME280;28756;49.064;9.290;2023-04-25T01:46:41;98433.06;;;6.53;100.00
43153;BME280;28756;49.064;9.290;2023-04-25T01:49:07;98433.97;;;6.52;100.00
43153;BME280;28756;49.064;9.290;2023-04-25T01:51:33;98433.91;;;6.54;100.00
43153;BME280;28756;49.064;9.290;2023-04-25T01:54:00;98433.06;;;6.53;100.00
43153;BME280;28756;49.064;9.290;2023-04-25T01:56:31;98436.50;;;6.54;100.00
43153;BME280;28756;49.064;9.290;2023-04-25T01:58:57;98426.84;;;6.57;100.00
43153;BME280;28756;49.064;9.290;2023-04-25T02:01:23;98423.41;;;6.57;100.00
43153;BME280;28756;49.064;9.290;2023-04-25T02:03:49;98425.31;;;6.53;100.00
43153;BME280;28756;49.064;9.290;2023-04-25T02:06:15;98422.94;;;6.48;100.00
43153;BME280;28756;49.064;9.290;2023-04-25T02:08:41;98424.63;;;6.50;100.00
43153;BME280;28756;49.064;9.290;2023-04-25T02:11:07;98428.97;;;6.49;100.00
43153;BME280;28756;49.064;9.290;2023-04-25T02:13:33;98424.16;;;6.41;100.00
43153;BME280;28756;49.064;9.290;2023-04-25T02:15:58;98416.06;;;6.49;100.00
43153;BME280;28756;49.064;9.290;2023-04-25T02:18:24;98423.63;;;6.52;100.00
43153;BME280;28756;49.064;9.290;2023-04-25T02:20:52;98410.72;;;6.52;100.00
43153;BME280;28756;49.064;9.290;2023-04-25T02:23:17;98415.97;;;6.51;100.00
43153;BME280;28756;49.064;9.290;2023-04-25T02:25:44;98416.13;;;6.47;100.00
43153;BME280;28756;49.064;9.290;2023-04-25T02:28:10;98416.19;;;6.46;100.00
43153;BME280;28756;49.064;9.290;2023-04-25T02:30:36;98413.69;;;6.44;100.00
43153;BME280;28756;49.064;9.290;2023-04-25T02:33:02;98412.16;;;6.40;100.00
43153;BME280;28756;49.064;9.290;2023-04-25T02:35:28;98415.38;;;6.45;100.00
43153;BME280;28756;49.064;9.290;2023-04-25T02:37:54;98410.81;;;6.51;100.00
43153;BME280;28756;49.064;9.290;2023-04-25T02:40:20;98409.91;;;6.52;100.00
43153;BME280;28756;49.064;9.290;2023-04-25T02:42:45;98410.81;;;6.51;100.00
43153;BME280;28756;49.064;9.290;2023-04-25T02:45:11;98409.91;;;6.52;100.00
43153;BME280;28756;49.064;9.290;2023-04-25T02:47:37;98414.97;;;6.53;100.00
43153;BME280;28756;49.064;9.290;2023-04-25T02:50:03;98400.34;;;6.54;100.00
43153;BME280;28756;49.064;9.290;2023-04-25T02:52:30;98397.81;;;6.52;100.00
43153;BME280;28756;49.064;9.290;2023-04-25T02:54:55;98400.56;;;6.49;100.00
43153;BME280;28756;49.064;9.290;2023-04-25T02:57:21;98411.81;;;6.48;100.00
43153;BME280;28756;49.064;9.290;2023-04-25T02:59:47;98404.06;;;6.48;100.00
43153;BME280;28756;49.064;9.290;2023-04-25T03:02:13;98402.25;;;6.50;100.00
43153;BME280;28756;49.064;9.290;2023-04-25T03:04:39;98410.88;;;6.49;100.00
43153;BME280;28756;49.064;9.290;2023-04-25T03:07:05;98396.00;;;6.54;100.00
43153;BME280;28756;49.064;9.290;2023-04-25T03:09:31;98400.94;;;6.59;100.00
43153;BME280;28756;49.064;9.290;2023-04-25T03:11:57;98400.84;;;6.60;100.00
43153;BME280;28756;49.064;9.290;2023-04-25T03:14:23;98396.53;;;6.61;100.00
43153;BME280;28756;49.064;9.290;2023-04-25T03:16:48;98394.69;;;6.63;100.00
43153;BME280;28756;49.064;9.290;2023-04-25T03:19:14;98382.72;;;6.62;100.00
43153;BME280;28756;49.064;9.290;2023-04-25T03:21:42;98394.00;;;6.59;100.00
43153;BME280;28756;49.064;9.290;2023-04-25T03:24:08;98393.97;;;6.61;100.00
43153;BME280;28756;49.064;9.290;2023-04-25T03:26:34;98397.38;;;6.61;100.00
43153;BME280;28756;49.064;9.290;2023-04-25T03:29:00;98400.81;;;6.62;100.00
43153;BME280;28756;49.064;9.290;2023-04-25T03:31:25;98399.84;;;6.63;100.00
43153;BME280;28756;49.064;9.290;2023-04-25T03:33:51;98392.06;;;6.64;100.00
43153;BME280;28756;49.064;9.290;2023-04-25T03:36:17;98409.38;;;6.62;100.00
43153;BME280;28756;49.064;9.290;2023-04-25T03:38:42;98400.81;;;6.62;100.00
43153;BME280;28756;49.064;9.290;2023-04-25T03:41:08;98399.03;;;6.62;100.00
43153;BME280;28756;49.064;9.290;2023-04-25T03:43:34;98407.56;;;6.64;100.00
43153;BME280;28756;49.064;9.290;2023-04-25T03:46:00;98397.44;;;6.60;100.00
43153;BME280;28756;49.064;9.290;2023-04-25T03:48:26;98393.19;;;6.59;100.00
43153;BME280;28756;49.064;9.290;2023-04-25T03:50:53;98399.34;;;6.56;100.00
43153;BME280;28756;49.064;9.290;2023-04-25T03:53:19;98399.44;;;6.55;100.00
43153;BME280;28756;49.064;9.290;2023-04-25T03:55:45;98397.66;;;6.55;100.00
43153;BME280;28756;49.064;9.290;2023-04-25T03:58:11;98404.72;;;6.52;100.00
43153;BME280;28756;49.064;9.290;2023-04-25T04:00:36;98399.66;;;6.50;100.00
43153;BME280;28756;49.064;9.290;2023-04-25T04:03:02;98400.47;;;6.51;100.00
43153;BME280;28756;49.064;9.290;2023-04-25T04:05:28;98412.63;;;6.48;100.00
43153;BME280;28756;49.064;9.290;2023-04-25T04:07:54;98414.53;;;6.45;100.00
43153;BME280;28756;49.064;9.290;2023-04-25T04:10:20;98413.84;;;6.41;100.00
43153;BME280;28756;49.064;9.290;2023-04-25T04:12:46;98419.78;;;6.43;100.00
43153;BME280;28756;49.064;9.290;2023-04-25T04:15:12;98414.75;;;6.40;100.00
43153;BME280;28756;49.064;9.290;2023-04-25T04:17:38;98410.47;;;6.39;100.00
43153;BME280;28756;49.064;9.290;2023-04-25T04:20:05;98416.50;;;6.40;100.00
43153;BME280;28756;49.064;9.290;2023-04-25T04:22:31;98410.34;;;6.42;100.00
43153;BME280;28756;49.064;9.290;2023-04-25T04:24:57;98421.53;;;6.43;100.00
43153;BME280;28756;49.064;9.290;2023-04-25T04:27:23;98419.16;;;6.38;100.00
43153;BME280;28756;49.064;9.290;2023-04-25T04:29:49;98409.56;;;6.40;100.00
43153;BME280;28756;49.064;9.290;2023-04-25T04:32:16;98413.91;;;6.40;100.00
43153;BME280;28756;49.064;9.290;2023-04-25T04:34:42;98414.69;;;6.42;100.00
43153;BME280;28756;49.064;9.290;2023-04-25T04:37:08;98420.59;;;6.44;100.00
43153;BME280;28756;49.064;9.290;2023-04-25T04:39:35;98424.31;;;6.38;100.00
43153;BME280;28756;49.064;9.290;2023-04-25T04:42:01;98431.13;;;6.39;100.00
43153;BME280;28756;49.064;9.290;2023-04-25T04:44:30;98421.75;;;6.38;100.00
43153;BME280;28756;49.064;9.290;2023-04-25T04:46:58;98420.88;;;6.38;100.00
43153;BME280;28756;49.064;9.290;2023-04-25T04:49:24;98424.84;;;6.45;100.00
43153;BME280;28756;49.064;9.290;2023-04-25T04:51:50;98430.00;;;6.45;100.00
43153;BME280;28756;49.064;9.290;2023-04-25T04:54:16;98424.84;;;6.45;100.00
43153;BME280;28756;49.064;9.290;2023-04-25T04:56:42;98436.78;;;6.47;100.00
43153;BME280;28756;49.064;9.290;2023-04-25T04:59:09;98436.09;;;6.44;100.00
43153;BME280;28756;49.064;9.290;2023-04-25T05:01:34;98440.22;;;6.48;100.00
43153;BME280;28756;49.064;9.290;2023-04-25T05:04:03;98449.69;;;6.47;100.00
43153;BME280;28756;49.064;9.290;2023-04-25T05:06:29;98446.50;;;6.42;100.00
43153;BME280;28756;49.064;9.290;2023-04-25T05:08:57;98439.53;;;6.44;100.00
43153;BME280;28756;49.064;9.290;2023-04-25T05:11:24;98444.78;;;6.43;100.00
43153;BME280;28756;49.064;9.290;2023-04-25T05:13:52;98449.22;;;6.39;100.00
43153;BME280;28756;49.064;9.290;2023-04-25T05:16:19;98449.09;;;6.42;100.00
43153;BME280;28756;49.064;9.290;2023-04-25T05:18:45;98454.94;;;6.46;100.00
43153;BME280;28756;49.064;9.290;2023-04-25T05:21:11;98457.06;;;6.38;100.00
43153;BME280;28756;49.064;9.290;2023-04-25T05:23:37;98447.28;;;6.44;100.00
43153;BME280;28756;49.064;9.290;2023-04-25T05:26:03;98440.34;;;6.45;100.00
43153;BME280;28756;49.064;9.290;2023-04-25T05:28:29;98451.97;;;6.36;100.00
43153;BME280;28756;49.064;9.290;2023-04-25T05:30:55;98463.56;;;6.27;100.00
43153;BME280;28756;49.064;9.290;2023-04-25T05:33:20;98460.13;;;6.27;100.00
43153;BME280;28756;49.064;9.290;2023-04-25T05:35:46;98458.25;;;6.30;100.00
43153;BME280;28756;49.064;9.290;2023-04-25T05:38:12;98468.38;;;6.35;100.00
43153;BME280;28756;49.064;9.290;2023-04-25T05:40:38;98465.19;;;6.30;100.00
43153;BME280;28756;49.064;9.290;2023-04-25T05:43:04;98472.41;;;6.41;100.00
43153;BME280;28756;49.064;9.290;2023-04-25T05:45:29;98459.13;;;6.48;100.00
43153;BME280;28756;49.064;9.290;2023-04-25T05:47:55;98460.19;;;6.44;100.00
43153;BME280;28756;49.064;9.290;2023-04-25T05:50:21;98463.69;;;6.43;100.00
43153;BME280;28756;49.064;9.290;2023-04-25T05:52:47;98463.69;;;6.43;100.00
43153;BME280;28756;49.064;9.290;2023-04-25T05:55:13;98462.03;;;6.60;100.00
43153;BME280;28756;49.064;9.290;2023-04-25T05:57:39;98458.31;;;6.66;100.00
43153;BME280;28756;49.064;9.290;2023-04-25T06:00:08;98461.88;;;6.63;100.00
43153;BME280;28756;49.064;9.290;2023-04-25T06:02:35;98451.41;;;6.66;100.00
43153;BME280;28756;49.064;9.290;2023-04-25T06:05:01;98454.13;;;6.80;100.00
43153;BME280;28756;49.064;9.290;2023-04-25T06:07:29;98455.81;;;6.99;100.00
43153;BME280;28756;49.064;9.290;2023-04-25T06:09:56;98454.72;;;7.21;100.00
43153;BME280;28756;49.064;9.290;2023-04-25T06:12:22;98457.09;;;7.25;100.00
43153;BME280;28756;49.064;9.290;2023-04-25T06:14:47;98450.88;;;7.12;100.00
43153;BME280;28756;49.064;9.290;2023-04-25T06:17:13;98451.31;;;7.20;100.00
43153;BME280;28756;49.064;9.290;2023-04-25T06:19:39;98451.22;;;7.22;100.00
43153;BME280;28756;49.064;9.290;2023-04-25T06:22:05;98449.84;;;7.32;100.00
43153;BME280;28756;49.064;9.290;2023-04-25T06:24:32;98447.81;;;7.21;100.00
43153;BME280;28756;49.064;9.290;2023-04-25T06:26:58;98448.31;;;7.28;100.00
43153;BME280;28756;49.064;9.290;2023-04-25T06:29:24;98448.31;;;7.46;100.00
43153;BME280;28756;49.064;9.290;2023-04-25T06:31:50;98446.28;;;7.51;100.00
43153;BME280;28756;49.064;9.290;2023-04-25T06:34:16;98439.31;;;7.53;100.00
43153;BME280;28756;49.064;9.290;2023-04-25T06:36:41;98433.41;;;7.67;100.00
43153;BME280;28756;49.064;9.290;2023-04-25T06:39:07;98436.34;;;7.77;100.00
43153;BME280;28756;49.064;9.290;2023-04-25T06:41:34;98432.56;;;7.66;100.00
43153;BME280;28756;49.064;9.290;2023-04-25T06:44:00;98435.81;;;7.54;100.00
43153;BME280;28756;49.064;9.290;2023-04-25T06:46:26;98439.59;;;7.64;100.00
43153;BME280;28756;49.064;9.290;2023-04-25T06:48:52;98431.53;;;7.53;100.00
43153;BME280;28756;49.064;9.290;2023-04-25T06:51:18;98436.28;;;7.45;100.00
43153;BME280;28756;49.064;9.290;2023-04-25T06:53:43;98439.28;;;7.37;100.00
43153;BME280;28756;49.064;9.290;2023-04-25T06:56:09;98446.84;;;7.40;100.00
43153;BME280;28756;49.064;9.290;2023-04-25T06:58:35;98443.84;;;7.32;100.00
43153;BME280;28756;49.064;9.290;2023-04-25T07:01:01;98455.03;;;7.32;100.00
43153;BME280;28756;49.064;9.290;2023-04-25T07:03:27;98458.44;;;7.33;100.00
43153;BME280;28756;49.064;9.290;2023-04-25T07:05:52;98456.31;;;7.23;100.00
43153;BME280;28756;49.064;9.290;2023-04-25T07:08:18;98462.16;;;7.27;100.00
43153;BME280;28756;49.064;9.290;2023-04-25T07:10:44;98459.44;;;7.30;100.00
43153;BME280;28756;49.064;9.290;2023-04-25T07:13:11;98464.72;;;7.11;100.00
43153;BME280;28756;49.064;9.290;2023-04-25T07:15:37;98470.94;;;7.24;100.00
43153;BME280;28756;49.064;9.290;2023-04-25T07:18:03;98467.84;;;7.18;100.00
43153;BME280;28756;49.064;9.290;2023-04-25T07:20:29;98462.22;;;7.09;100.00
43153;BME280;28756;49.064;9.290;2023-04-25T07:22:56;98463.69;;;7.31;100.00
43153;BME280;28756;49.064;9.290;2023-04-25T07:25:23;98465.72;;;7.42;100.00
43153;BME280;28756;49.064;9.290;2023-04-25T07:27:49;98460.66;;;7.40;100.00
43153;BME280;28756;49.064;9.290;2023-04-25T07:30:15;98466.09;;;7.34;100.00
43153;BME280;28756;49.064;9.290;2023-04-25T07:32:41;98468.97;;;7.63;100.00
43153;BME280;28756;49.064;9.290;2023-04-25T07:35:07;98472.38;;;7.64;100.00
43153;BME280;28756;49.064;9.290;2023-04-25T07:37:34;98468.34;;;7.58;100.00
43153;BME280;28756;49.064;9.290;2023-04-25T07:40:02;98470.22;;;7.72;100.00
43153;BME280;28756;49.064;9.290;2023-04-25T07:42:29;98467.66;;;7.54;100.00
43153;BME280;28756;49.064;9.290;2023-04-25T07:44:55;98478.19;;;7.51;100.00
43153;BME280;28756;49.064;9.290;2023-04-25T07:47:21;98479.13;;;7.66;100.00
43153;BME280;28756;49.064;9.290;2023-04-25T07:49:47;98475.63;;;7.67;100.00
43153;BME280;28756;49.064;9.290;2023-04-25T07:52:14;98483.88;;;7.58;100.00
43153;BME280;28756;49.064;9.290;2023-04-25T07:54:40;98482.13;;;7.58;100.00
43153;BME280;28756;49.064;9.290;2023-04-25T07:57:05;98481.03;;;7.47;100.00
43153;BME280;28756;49.064;9.290;2023-04-25T07:59:34;98483.44;;;7.50;100.00
43153;BME280;28756;49.064;9.290;2023-04-25T08:02:01;98473.38;;;7.61;100.00
43153;BME280;28756;49.064;9.290;2023-04-25T08:04:28;98477.66;;;7.45;100.00
43153;BME280;28756;49.064;9.290;2023-04-25T08:06:54;98482.69;;;7.48;100.00
43153;BME280;28756;49.064;9.290;2023-04-25T08:09:20;98491.19;;;7.50;100.00
43153;BME280;28756;49.064;9.290;2023-04-25T08:11:46;98489.47;;;7.50;100.00
43153;BME280;28756;49.064;9.290;2023-04-25T08:14:13;98491.91;;;7.53;100.00
43153;BME280;28756;49.064;9.290;2023-04-25T08:16:39;98492.19;;;7.47;100.00
43153;BME280;28756;49.064;9.290;2023-04-25T08:19:05;98490.38;;;7.49;100.00
43153;BME280;28756;49.064;9.290;2023-04-25T08:21:31;98499.16;;;7.63;100.00
43153;BME280;28756;49.064;9.290;2023-04-25T08:23:58;98505.50;;;7.57;100.00
43153;BME280;28756;49.064;9.290;2023-04-25T08:26:25;98500.41;;;7.55;100.00
43153;BME280;28756;49.064;9.290;2023-04-25T08:28:51;98503.97;;;7.53;100.00
43153;BME280;28756;49.064;9.290;2023-04-25T08:31:17;98513.78;;;7.64;100.00
43153;BME280;28756;49.064;9.290;2023-04-25T08:33:43;98516.25;;;7.83;100.00
43153;BME280;28756;49.064;9.290;2023-04-25T08:36:10;98512.06;;;7.80;100.00
43153;BME280;28756;49.064;9.290;2023-04-25T08:38:36;98507.13;;;7.75;100.00
43153;BME280;28756;49.064;9.290;2023-04-25T08:41:02;98510.69;;;7.90;100.00
43153;BME280;28756;49.064;9.290;2023-04-25T08:43:29;98517.63;;;8.06;100.00
43153;BME280;28756;49.064;9.290;2023-04-25T08:45:59;98519.88;;;8.12;100.00
43153;BME280;28756;49.064;9.290;2023-04-25T08:48:27;98521.13;;;8.21;100.00
43153;BME280;28756;49.064;9.290;2023-04-25T08:50:55;98525.06;;;7.96;100.00
43153;BME280;28756;49.064;9.290;2023-04-25T08:53:31;98531.41;;;8.06;100.00
43153;BME280;28756;49.064;9.290;2023-04-25T08:55:59;98532.16;;;7.93;100.00
43153;BME280;28756;49.064;9.290;2023-04-25T08:58:25;98536.75;;;8.19;100.00
43153;BME280;28756;49.064;9.290;2023-04-25T09:00:52;98542.03;;;8.18;100.00
43153;BME280;28756;49.064;9.290;2023-04-25T09:03:18;98539.41;;;8.02;100.00
43153;BME280;28756;49.064;9.290;2023-04-25T09:05:44;98549.97;;;8.15;100.00
43153;BME280;28756;49.064;9.290;2023-04-25T09:08:10;98547.69;;;8.09;100.00
43153;BME280;28756;49.064;9.290;2023-04-25T09:10:37;98555.13;;;8.15;100.00
43153;BME280;28756;49.064;9.290;2023-04-25T09:13:09;98553.31;;;8.17;100.00
43153;BME280;28756;49.064;9.290;2023-04-25T09:15:51;98553.66;;;8.43;100.00
43153;BME280;28756;49.064;9.290;2023-04-25T09:18:29;98549.78;;;8.67;100.00
43153;BME280;28756;49.064;9.290;2023-04-25T09:21:10;98555.41;;;8.42;100.00
43153;BME280;28756;49.064;9.290;2023-04-25T09:23:46;98550.22;;;8.26;100.00
43153;BME280;28756;49.064;9.290;2023-04-25T09:26:20;98560.78;;;8.39;100.00
43153;BME280;28756;49.064;9.290;2023-04-25T09:28:47;98562.38;;;8.74;100.00
43153;BME280;28756;49.064;9.290;2023-04-25T09:31:23;98560.09;;;8.35;100.00
43153;BME280;28756;49.064;9.290;2023-04-25T09:33:49;98566.38;;;8.95;100.00
43153;BME280;28756;49.064;9.290;2023-04-25T09:36:15;98561.63;;;9.18;100.00
43153;BME280;28756;49.064;9.290;2023-04-25T09:38:44;98568.53;;;9.33;100.00
43153;BME280;28756;49.064;9.290;2023-04-25T09:41:10;98571.06;;;9.35;100.00
43153;BME280;28756;49.064;9.290;2023-04-25T09:43:38;98600.94;;;8.64;100.00
43153;BME280;28756;49.064;9.290;2023-04-25T09:46:09;98606.56;;;7.54;100.00
43153;BME280;28756;49.064;9.290;2023-04-25T09:48:36;98619.31;;;6.85;100.00
43153;BME280;28756;49.064;9.290;2023-04-25T09:51:13;98645.88;;;6.31;100.00
43153;BME280;28756;49.064;9.290;2023-04-25T09:53:45;98664.53;;;5.97;100.00
43153;BME280;28756;49.064;9.290;2023-04-25T09:56:17;98665.97;;;5.83;100.00
43153;BME280;28756;49.064;9.290;2023-04-25T09:58:47;98678.63;;;5.67;100.00
43153;BME280;28756;49.064;9.290;2023-04-25T10:01:16;98681.16;;;5.69;100.00
43153;BME280;28756;49.064;9.290;2023-04-25T10:03:43;98684.34;;;5.53;100.00
43153;BME280;28756;49.064;9.290;2023-04-25T10:06:18;98687.47;;;5.62;100.00
43153;BME280;28756;49.064;9.290;2023-04-25T10:08:45;98692.56;;;5.63;100.00
43153;BME280;28756;49.064;9.290;2023-04-25T10:11:15;98690.75;;;5.65;100.00
43153;BME280;28756;49.064;9.290;2023-04-25T10:13:42;98690.47;;;5.51;100.00
43153;BME280;28756;49.064;9.290;2023-04-25T10:16:08;98695.00;;;5.46;100.00
43153;BME280;28756;49.064;9.290;2023-04-25T10:18:34;98698.94;;;5.54;100.00
43153;BME280;28756;49.064;9.290;2023-04-25T10:21:02;98703.44;;;5.72;100.00
43153;BME280;28756;49.064;9.290;2023-04-25T10:23:30;98702.66;;;5.90;100.00
43153;BME280;28756;49.064;9.290;2023-04-25T10:25:57;98707.88;;;6.11;100.00
43153;BME280;28756;49.064;9.290;2023-04-25T10:28:24;98707.31;;;6.23;100.00
43153;BME280;28756;49.064;9.290;2023-04-25T10:31:07;98708.06;;;6.06;100.00
43153;BME280;28756;49.064;9.290;2023-04-25T10:33:39;98705.31;;;6.09;100.00
43153;BME280;28756;49.064;9.290;2023-04-25T10:36:19;98701.47;;;6.20;100.00
43153;BME280;28756;49.064;9.290;2023-04-25T10:38:48;98717.66;;;6.63;100.00
43153;BME280;28756;49.064;9.290;2023-04-25T10:41:19;98701.84;;;6.31;100.00
43153;BME280;28756;49.064;9.290;2023-04-25T10:43:47;98706.03;;;6.34;100.00
43153;BME280;28756;49.064;9.290;2023-04-25T10:46:23;98707.09;;;6.48;100.00
43153;BME280;28756;49.064;9.290;2023-04-25T10:48:51;98706.22;;;6.08;100.00
43153;BME280;28756;49.064;9.290;2023-04-25T10:51:29;98709.00;;;6.24;100.00
43153;BME280;28756;49.064;9.290;2023-04-25T10:56:23;98712.75;;;6.17;100.00
43153;BME280;28756;49.064;9.290;2023-04-25T10:58:50;98716.53;;;6.50;100.00
43153;BME280;28756;49.064;9.290;2023-04-25T11:01:21;98721.03;;;6.84;100.00
43153;BME280;28756;49.064;9.290;2023-04-25T11:03:47;98726.78;;;6.91;100.00
43153;BME280;28756;49.064;9.290;2023-04-25T11:09:24;98727.34;;;6.98;100.00
43153;BME280;28756;49.064;9.290;2023-04-25T11:11:58;98733.75;;;7.27;100.00
43153;BME280;28756;49.064;9.290;2023-04-25T11:14:24;98736.53;;;7.03;100.00
43153;BME280;28756;49.064;9.290;2023-04-25T11:16:54;98741.09;;;7.17;100.00
43153;BME280;28756;49.064;9.290;2023-04-25T11:19:22;98732.91;;;7.26;100.00
43153;BME280;28756;49.064;9.290;2023-04-25T11:21:48;98731.09;;;7.65;100.00
43153;BME280;28756;49.064;9.290;2023-04-25T11:24:14;98725.63;;;8.24;100.00
43153;BME280;28756;49.064;9.290;2023-04-25T11:26:47;98717.88;;;8.58;100.00
43153;BME280;28756;49.064;9.290;2023-04-25T11:29:16;98717.50;;;8.65;100.00
43153;BME280;28756;49.064;9.290;2023-04-25T11:31:45;98703.28;;;8.73;100.00
43153;BME280;28756;49.064;9.290;2023-04-25T11:34:18;98710.50;;;8.83;100.00
43153;BME280;28756;49.064;9.290;2023-04-25T11:36:45;98696.06;;;9.11;100.00
43153;BME280;28756;49.064;9.290;2023-04-25T11:39:12;98695.28;;;9.09;100.00
43153;BME280;28756;49.064;9.290;2023-04-25T11:41:38;98692.84;;;8.74;100.00
43153;BME280;28756;49.064;9.290;2023-04-25T11:44:05;98697.00;;;9.41;100.00
43153;BME280;28756;49.064;9.290;2023-04-25T11:46:33;98692.50;;;7.96;100.00
43153;BME280;28756;49.064;9.290;2023-04-25T11:49:00;98705.03;;;8.38;100.00
43153;BME280;28756;49.064;9.290;2023-04-25T11:51:25;98704.00;;;8.07;100.00
43153;BME280;28756;49.064;9.290;2023-04-25T11:53:52;98703.53;;;8.52;100.00
43153;BME280;28756;49.064;9.290;2023-04-25T11:56:18;98703.00;;;8.10;100.00
43153;BME280;28756;49.064;9.290;2023-04-25T11:59:05;98722.84;;;8.45;100.00
43153;BME280;28756;49.064;9.290;2023-04-25T12:01:39;98715.59;;;8.69;100.00
43153;BME280;28756;49.064;9.290;2023-04-25T12:04:15;98722.06;;;9.10;100.00
43153;BME280;28756;49.064;9.290;2023-04-25T12:06:44;98715.44;;;9.04;100.00
43153;BME280;28756;49.064;9.290;2023-04-25T12:09:16;98722.03;;;8.78;100.00
43153;BME280;28756;49.064;9.290;2023-04-25T12:11:49;98710.31;;;8.19;100.00
43153;BME280;28756;49.064;9.290;2023-04-25T12:14:29;98718.84;;;8.73;100.00
43153;BME280;28756;49.064;9.290;2023-04-25T12:17:01;98714.88;;;8.32;100.00
43153;BME280;28756;49.064;9.290;2023-04-25T12:19:33;98706.31;;;7.96;100.00
43153;BME280;28756;49.064;9.290;2023-04-25T12:22:10;98706.81;;;8.20;100.00
43153;BME280;28756;49.064;9.290;2023-04-25T12:24:45;98709.63;;;8.67;100.00
43153;BME280;28756;49.064;9.290;2023-04-25T12:27:10;98719.75;;;8.72;100.00
43153;BME280;28756;49.064;9.290;2023-04-25T12:29:55;98714.75;;;8.84;100.00
43153;BME280;28756;49.064;9.290;2023-04-25T12:32:21;98704.72;;;9.26;100.00
43153;BME280;28756;49.064;9.290;2023-04-25T12:34:47;98707.66;;;9.20;100.00
43153;BME280;28756;49.064;9.290;2023-04-25T12:37:13;98717.34;;;9.00;100.00
43153;BME280;28756;49.064;9.290;2023-04-25T12:39:39;98718.22;;;8.51;100.00
43153;BME280;28756;49.064;9.290;2023-04-25T12:42:05;98725.66;;;8.91;100.00
43153;BME280;28756;49.064;9.290;2023-04-25T12:44:34;98727.06;;;9.29;100.00
43153;BME280;28756;49.064;9.290;2023-04-25T12:46:59;98730.78;;;9.25;100.00
43153;BME280;28756;49.064;9.290;2023-04-25T12:49:25;98738.03;;;9.18;100.00
43153;BME280;28756;49.064;9.290;2023-04-25T12:51:51;98730.78;;;9.25;100.00
43153;BME280;28756;49.064;9.290;2023-04-25T12:54:17;98730.81;;;9.55;100.00
43153;BME280;28756;49.064;9.290;2023-04-25T12:56:43;98730.16;;;9.52;100.00
43153;BME280;28756;49.064;9.290;2023-04-25T12:59:09;98730.44;;;9.31;100.00
43153;BME280;28756;49.064;9.290;2023-04-25T13:01:35;98734.97;;;9.11;100.00
43153;BME280;28756;49.064;9.290;2023-04-25T13:04:01;98739.53;;;9.38;100.00
43153;BME280;28756;49.064;9.290;2023-04-25T13:06:27;98735.34;;;9.68;100.00